Airfield :
LOGIN :

Register | Disclaimer

   EN    FR    IT 

 










Legend :    VFR   Marginal VFR   IFR   Intensive IFR   Very Intensive IFR
Visi :
Ceiling :
>= 8 km
>= 3000ft
5 to 8 km
1000 to 3000 ft
1500m to 5 km
500 to 1000 ft
800 to 1500m
200 to 500 ft
< 800m
< 200 ft
Symbols :   Thunderstorms  Fog  Heavy snow  Heavy precipitations  Wind > 20 kt
SIGMETs :     Misc.  Thunderstorms  Icing  Turbulence  Mountain Waves  Volcanic Ashes







- Airport Elevation : 219 ft
- IATA code : DNR
- Download approach charts


LFRD - Dinard

CURRENT METAR :
  • 261930Z AUTO 00000KT 9999 FEW007 SCT030 BKN038 14/13 Q1016 TEMPO 3000 RA BKN005 BECMG 32010KT

EXPIRED METARs :
  • 261900Z AUTO VRB02KT 9999 SCT011 BKN016 BKN027 14/13 Q1016 TEMPO 3000 RA BKN005
  • 261830Z AUTO VRB02KT 9000 SCT014 BKN020 BKN027 15/13 Q1017 TEMPO 3000 RA BKN005
  • 261800Z AUTO VRB03KT 9999 BKN018 OVC024 15/13 Q1017 TEMPO 3000 RA BKN005
  • 261730Z AUTO 01007KT 9999 BKN020 OVC029 15/13 Q1017 TEMPO 3000 RA BKN005
  • 261700Z AUTO 23005KT 9999 FEW021 BKN029 BKN034 17/13 Q1017 TEMPO 3000 RA BKN005 BECMG 32010KT
  • 261630Z AUTO 22006KT 180V270 9999 FEW017 SCT033 OVC039 17/13 Q1017 TEMPO 3000 RA BKN005

TAF TAF LFRD
Valid from the 26 at 18:00 until the 27 at 18:00 UTC


261700Z 2618/2718 32010KT 9999 BKN015
TEMPO 2618/2623 3000 RA BKN005
BECMG 2622/2624 SCT030
TEMPO 2700/2706 BKN008
BECMG 2712/2714 30015G25KT
ATIS : +33 2 99 16 81 50
No reported NOTAMs for that airfield.



MET'MAP, your aeronautical weather chart ! - Copyright ORBIFLY December 2007 - Disclaimer

ORBIFLY MET'MAP TEAM :

Programming & Development : Alexandra Zaïnal
Concept & Development : Baudouin d'Aumeries
Co-Development & Prog : Marc-Olivier Méhu
Technical & hardware support : Manuel Goepfert

Contact : metmap@orbifly.com




SOURCES & CREDITS :

   NOAA